Saint-Tropez, France
Current Conditions -  °F | °C
As of 10:00 AM on Wednesday 22 Oct 2014 (Local Time) from LFMD Reporting Station
Clear Clear  
Wind Chill: 68°   Ceiling: Unl
Heat Index: 68°   Visibility: 6mi
Dew Point: 30°   Wind: 3mph
Humidity: 24%   Direction: NA
Pressure: 29.8"   Gusts: NA
Location:  43.27°N, 6.64°E
Report Text: LFMD 220800Z AUTO VRB03KT 9999 NSC 20/M01 Q1009
Loading
Personal Weather Stations






























Interactive Weather Map
Tropical Storm Tracking
New forecast layout! Learn more

10-Day Weather Forecast

Advertisements
Track Severe Weather on mobile